Pagrindinis puslapis
METAR-TAF:

METAR-TAF

Oro uostai :

Kuresarė, Estija

platuma: 58-13-48N, ilguma: 022-30-34E, Aukštis: 4 m

Dabartinis oras

Ataskaita buvo paskelbta 1 valandą ir 14 minutes, ne 16:50 UTC
Vėjas 6 kt iš Šiaurės Rytų
Temperatūra 2°C
Drėgmė 80%
Slėgis 1037 hPa
Matomumas 10 km arba daugiau
Su prošvaistėmis ne aukštis 1900 ft
Apsiniaukę ne aukštis 2700 ft
sniegas

METAR: EEKE 191650Z 04006KT 9999 -SN BKN019 OVC027 02/M01 Q1037

Laikas: 20:04 (18:04 UTC)

Prognozė

Ataskaita buvo paskelbta 3 valandos ir 4 minutes, ne 15:00 UTC
Prognozė galioja nuo 19 metu 16 UTC su 19 metu 22 UTC
Vėjas 7 kt iš Rytų
Matomumas 10 km arba daugiau
Su prošvaistėmis ne aukštis 2000 ft
Tikimybė 40% :
Laikinai
nuo 19 metu 16 UTC su 19 metu 20 UTC
Matomumas: 4000 m
Išsisklaidę debesys ne aukštis 1000 ft
Mažai debesys ne aukštis 2000 ft, Liūtiniai kamuoliniai debesys.
Apsiniaukę ne aukštis 2000 ft
sniegas, lietus

TAF: EEKE 191500Z 1916/1922 08007KT 9999 BKN020 PROB40 TEMPO 1916/1920 4000 SHSNRA SCT010 FEW020CB OVC020

Orai ataskaitas ir orų prognozės (METAR, TAF).

turimą stotys yra geltonos ir raudonos taškus žemėlapyje.

Perkelti pele per norėdami pamatyti stoties vardą.

Tada spustelėkite, norėdami matyti oro stebėjimo ir prognozės.

Norėdami pakeisti žemėlapį: spustelėkite ant žalios mygtukų su juodo kryžiaus žemyn,; žalią mygtuką su brūkšneliu, jei norite nutolinti; arba žalių rodyklių gretimoms žemėlapius.


METAR-TAF: